createdAt,value
2022-08-23T00:00:28.072Z,20.10
2022-08-23T00:03:15.751Z,19.90
2022-08-23T00:06:01.922Z,19.80
2022-08-23T00:08:48.938Z,19.80
2022-08-23T00:11:34.737Z,19.70
2022-08-23T00:14:28.135Z,19.70
2022-08-23T00:17:33.225Z,19.60
2022-08-23T00:20:20.410Z,19.60
2022-08-23T00:23:06.212Z,19.50
2022-08-23T00:25:51.695Z,19.40
2022-08-23T00:28:37.547Z,19.30
2022-08-23T00:31:23.403Z,19.20
2022-08-23T00:34:08.989Z,19.10
2022-08-23T00:36:57.566Z,19.20
2022-08-23T00:39:45.072Z,19.20
2022-08-23T00:43:21.098Z,19.20
2022-08-23T00:46:46.003Z,19.00
2022-08-23T00:49:33.451Z,18.90
2022-08-23T00:52:29.329Z,18.90
2022-08-23T00:55:16.969Z,18.90
2022-08-23T00:58:03.373Z,18.90
2022-08-23T01:00:51.775Z,18.80
2022-08-23T01:03:41.083Z,18.80
2022-08-23T01:06:36.764Z,18.70
2022-08-23T01:09:23.068Z,18.60
2022-08-23T01:12:32.991Z,18.40
2022-08-23T01:15:31.312Z,18.10
2022-08-23T01:18:19.886Z,17.80
2022-08-23T01:21:26.595Z,17.70
2022-08-23T01:24:18.092Z,17.40
2022-08-23T01:27:20.151Z,17.40
2022-08-23T01:30:08.936Z,17.20
2022-08-23T01:33:02.291Z,17.20
2022-08-23T01:35:57.007Z,17.20
2022-08-23T01:38:42.696Z,17.60
2022-08-23T01:41:28.473Z,17.80
2022-08-23T01:44:15.038Z,18.10
2022-08-23T01:47:01.232Z,17.90
2022-08-23T01:49:48.371Z,17.80
2022-08-23T01:52:36.531Z,17.90
2022-08-23T01:55:23.375Z,18.10
2022-08-23T01:58:09.697Z,18.10
2022-08-23T02:00:55.865Z,18.10
2022-08-23T02:03:42.233Z,18.10
2022-08-23T02:06:28.290Z,18.10
2022-08-23T02:09:17.800Z,18.00
2022-08-23T02:12:04.681Z,18.00
2022-08-23T02:14:51.021Z,18.00
2022-08-23T02:17:41.274Z,17.90
2022-08-23T02:20:27.060Z,17.80
2022-08-23T02:23:13.277Z,17.80
2022-08-23T02:25:59.141Z,17.60
2022-08-23T02:28:46.057Z,17.60
2022-08-23T02:31:31.646Z,17.80
2022-08-23T02:34:18.672Z,17.80
2022-08-23T02:37:05.156Z,17.90
2022-08-23T02:39:51.444Z,17.90
2022-08-23T02:42:37.175Z,17.80
2022-08-23T02:45:22.863Z,17.80
2022-08-23T02:48:09.644Z,17.70
2022-08-23T02:51:11.016Z,17.70
2022-08-23T02:53:57.519Z,17.60
2022-08-23T02:56:44.185Z,17.60
2022-08-23T02:59:30.327Z,17.50
2022-08-23T03:02:16.591Z,17.50
2022-08-23T03:05:03.310Z,17.10
2022-08-23T03:07:49.003Z,17.20
2022-08-23T03:10:35.276Z,16.90
2022-08-23T03:13:21.742Z,17.00
2022-08-23T03:16:10.167Z,16.70
2022-08-23T03:19:02.397Z,16.70
2022-08-23T03:21:48.508Z,16.70
2022-08-23T03:24:37.987Z,16.70
2022-08-23T03:27:23.786Z,16.50
2022-08-23T03:30:15.498Z,16.50
2022-08-23T03:33:07.213Z,16.60
2022-08-23T03:35:57.863Z,16.40
2022-08-23T03:38:45.387Z,16.30
2022-08-23T03:41:31.614Z,16.30
2022-08-23T03:44:17.220Z,16.60
2022-08-23T03:47:05.946Z,16.80
2022-08-23T03:49:51.931Z,16.90
2022-08-23T03:52:37.582Z,17.00
2022-08-23T03:55:23.387Z,16.90
2022-08-23T03:58:11.304Z,16.90
2022-08-23T04:00:57.702Z,17.00
2022-08-23T04:03:44.212Z,17.00
2022-08-23T04:06:31.954Z,17.10
2022-08-23T04:09:18.077Z,17.20
2022-08-23T04:12:14.788Z,17.10
2022-08-23T04:15:04.912Z,17.20
2022-08-23T04:17:54.304Z,17.20
2022-08-23T04:20:43.054Z,17.20
2022-08-23T04:23:29.198Z,17.20
2022-08-23T04:26:15.654Z,17.20
2022-08-23T04:29:04.419Z,17.20
2022-08-23T04:31:50.226Z,17.00
2022-08-23T04:34:39.895Z,16.60
2022-08-23T04:37:26.573Z,16.50
2022-08-23T04:40:31.433Z,16.30
2022-08-23T04:43:18.284Z,16.10
2022-08-23T04:46:05.609Z,16.20
2022-08-23T04:48:54.186Z,16.50
2022-08-23T04:51:39.940Z,16.50
2022-08-23T04:54:26.409Z,16.70
2022-08-23T04:57:35.344Z,16.80
2022-08-23T05:00:21.683Z,16.50
2022-08-23T05:03:15.941Z,16.60
2022-08-23T05:06:03.887Z,16.60
2022-08-23T05:08:56.013Z,16.70
2022-08-23T05:11:41.979Z,16.80
2022-08-23T05:14:28.258Z,17.00
2022-08-23T05:17:14.528Z,17.30
2022-08-23T05:20:00.250Z,17.70
2022-08-23T05:22:46.162Z,18.00
2022-08-23T05:25:52.438Z,18.40
2022-08-23T05:28:47.947Z,18.50
2022-08-23T05:31:35.329Z,18.70
2022-08-23T05:34:22.947Z,18.80
2022-08-23T05:37:15.278Z,19.00
2022-08-23T05:40:01.126Z,19.10
2022-08-23T05:42:50.223Z,19.00
2022-08-23T05:45:36.201Z,19.00
2022-08-23T05:48:25.139Z,19.10
2022-08-23T05:51:23.072Z,19.20
2022-08-23T05:54:09.668Z,19.30
2022-08-23T05:56:56.514Z,19.40
2022-08-23T05:59:42.393Z,19.60
2022-08-23T06:02:28.190Z,19.70
2022-08-23T06:05:14.006Z,19.90
2022-08-23T06:08:00.977Z,20.00
2022-08-23T06:10:46.976Z,20.00
2022-08-23T06:13:52.154Z,20.10
2022-08-23T06:16:41.360Z,20.30
2022-08-23T06:19:28.825Z,20.50
2022-08-23T06:22:47.496Z,20.60
2022-08-23T06:25:38.146Z,20.70
2022-08-23T06:28:30.685Z,20.90
2022-08-23T06:31:37.357Z,21.00
2022-08-23T06:34:33.660Z,21.00
2022-08-23T06:37:39.511Z,20.70
2022-08-23T06:40:39.168Z,21.10
2022-08-23T06:43:45.066Z,21.30
2022-08-23T06:46:39.242Z,21.50
2022-08-23T06:49:27.848Z,21.50
2022-08-23T06:52:14.603Z,21.50
2022-08-23T06:55:13.605Z,21.60
2022-08-23T06:58:10.446Z,21.70
2022-08-23T07:01:45.127Z,21.80
2022-08-23T07:04:40.449Z,22.00
2022-08-23T07:07:46.518Z,22.20
2022-08-23T07:10:32.395Z,22.20
2022-08-23T07:13:18.802Z,22.30
2022-08-23T07:16:04.770Z,22.40
2022-08-23T07:18:53.057Z,22.60
2022-08-23T07:21:39.560Z,22.60
2022-08-23T07:24:29.486Z,22.80
2022-08-23T07:27:19.046Z,22.80
2022-08-23T07:30:17.760Z,22.90
2022-08-23T07:33:04.214Z,22.80
2022-08-23T07:35:56.568Z,22.80
2022-08-23T07:38:43.914Z,22.70
2022-08-23T07:41:32.733Z,22.70
2022-08-23T07:44:19.921Z,22.80
2022-08-23T07:47:09.255Z,22.90
2022-08-23T07:49:56.578Z,23.20
2022-08-23T07:52:42.054Z,23.30
2022-08-23T07:55:27.605Z,23.40
2022-08-23T07:58:32.528Z,23.60
2022-08-23T08:01:43.748Z,23.70
2022-08-23T08:04:30.329Z,23.80
2022-08-23T08:07:20.559Z,24.00
2022-08-23T08:10:13.449Z,24.20
2022-08-23T08:12:59.422Z,24.40
2022-08-23T08:15:45.474Z,24.60
2022-08-23T08:18:35.727Z,24.80
2022-08-23T08:21:42.054Z,24.80
2022-08-23T08:25:06.786Z,24.80
2022-08-23T08:27:54.280Z,24.80
2022-08-23T08:30:40.320Z,25.00
2022-08-23T08:33:27.528Z,25.00
2022-08-23T08:36:36.230Z,25.00
2022-08-23T08:39:27.990Z,25.30
2022-08-23T08:42:42.935Z,25.50
2022-08-23T08:45:38.541Z,25.70
2022-08-23T08:48:27.564Z,25.70
2022-08-23T08:51:45.414Z,25.70
2022-08-23T08:54:32.746Z,25.80
2022-08-23T08:57:25.515Z,25.90
2022-08-23T09:00:19.942Z,26.10
2022-08-23T09:03:12.170Z,26.30
2022-08-23T09:06:20.507Z,26.50
2022-08-23T09:09:28.341Z,26.70
2022-08-23T09:12:49.555Z,26.90
2022-08-23T09:16:02.360Z,27.00
2022-08-23T09:18:49.025Z,27.10
2022-08-23T09:21:48.076Z,27.30
2022-08-23T09:24:33.620Z,27.40
2022-08-23T09:27:26.784Z,27.50
2022-08-23T09:30:19.137Z,27.30
2022-08-23T09:33:18.493Z,27.30
2022-08-23T09:36:08.922Z,27.70
2022-08-23T09:38:59.387Z,27.70
2022-08-23T09:41:46.062Z,27.80
2022-08-23T09:44:34.303Z,28.10
2022-08-23T09:47:19.903Z,28.30
2022-08-23T09:50:25.465Z,28.60
2022-08-23T09:53:14.698Z,28.70
2022-08-23T09:56:19.660Z,28.70
2022-08-23T09:59:26.402Z,28.90
2022-08-23T10:02:24.279Z,29.00
2022-08-23T10:05:37.148Z,29.10
2022-08-23T10:08:31.840Z,29.10
2022-08-23T10:11:30.259Z,29.20
2022-08-23T10:14:19.561Z,29.20
2022-08-23T10:17:08.122Z,29.30
2022-08-23T10:20:35.666Z,29.50
2022-08-23T10:23:51.137Z,29.60
2022-08-23T10:26:43.830Z,29.80
2022-08-23T10:29:42.408Z,29.80
2022-08-23T10:32:49.984Z,29.90
2022-08-23T10:35:43.198Z,30.00
2022-08-23T10:39:05.170Z,30.30
2022-08-23T10:42:18.816Z,30.50
2022-08-23T10:45:28.979Z,30.40
2022-08-23T10:48:30.483Z,30.60
2022-08-23T10:51:31.494Z,30.50
2022-08-23T10:54:34.708Z,30.40
2022-08-23T10:57:37.556Z,30.70
2022-08-23T11:00:26.986Z,30.90
2022-08-23T11:03:43.336Z,31.00
2022-08-23T11:06:38.316Z,31.10
2022-08-23T11:09:27.493Z,31.10
2022-08-23T11:12:26.946Z,30.60
2022-08-23T11:15:31.308Z,30.80
2022-08-23T11:18:30.094Z,31.20
2022-08-23T11:21:28.585Z,31.50
2022-08-23T11:24:22.349Z,31.70
2022-08-23T11:27:08.349Z,31.60
2022-08-23T11:30:33.370Z,31.80
2022-08-23T11:33:35.571Z,31.80
2022-08-23T11:36:27.406Z,32.00
2022-08-23T11:39:20.268Z,32.30
2022-08-23T11:42:12.346Z,32.80
2022-08-23T11:44:58.444Z,33.10
2022-08-23T11:47:44.704Z,33.40
2022-08-23T11:50:58.039Z,34.10
2022-08-23T11:53:54.142Z,35.00
2022-08-23T11:56:55.358Z,41.20
2022-08-23T12:00:29.122Z,47.00
2022-08-23T12:03:24.927Z,50.60
2022-08-23T12:06:50.563Z,50.00
2022-08-23T12:09:51.629Z,51.90
2022-08-23T12:12:42.788Z,52.10
2022-08-23T12:16:06.509Z,54.20
2022-08-23T12:18:54.892Z,55.20
2022-08-23T12:21:42.730Z,55.90
2022-08-23T12:24:41.664Z,56.30
2022-08-23T12:27:33.165Z,56.10
2022-08-23T12:30:57.208Z,56.00
2022-08-23T12:34:11.042Z,55.70
2022-08-23T12:37:18.463Z,54.70
2022-08-23T12:40:12.604Z,54.00
2022-08-23T12:43:22.635Z,54.00
2022-08-23T12:46:08.811Z,53.50
2022-08-23T12:48:54.545Z,52.50
2022-08-23T12:52:01.338Z,49.10
2022-08-23T12:54:51.632Z,44.40
2022-08-23T12:57:42.304Z,42.00
2022-08-23T13:00:51.650Z,40.30
2022-08-23T13:03:41.799Z,39.40
2022-08-23T13:06:39.805Z,39.40
2022-08-23T13:09:34.651Z,39.90
2022-08-23T13:12:20.924Z,39.80
2022-08-23T13:15:07.158Z,39.80
2022-08-23T13:18:02.005Z,40.50
2022-08-23T13:20:48.081Z,39.80
2022-08-23T13:23:33.674Z,39.50
2022-08-23T13:26:40.046Z,38.50
2022-08-23T13:29:25.983Z,37.10
2022-08-23T13:32:34.093Z,36.00
2022-08-23T13:35:25.528Z,35.40
2022-08-23T13:38:30.207Z,35.10
2022-08-23T13:41:38.646Z,34.80
2022-08-23T13:44:25.436Z,34.40
2022-08-23T13:47:22.533Z,34.30
2022-08-23T13:50:17.158Z,34.50
2022-08-23T13:53:19.574Z,34.40
2022-08-23T13:56:05.612Z,34.10
2022-08-23T13:58:58.046Z,33.60
2022-08-23T14:01:43.846Z,33.30
2022-08-23T14:04:29.535Z,33.00
2022-08-23T14:07:15.862Z,32.80
2022-08-23T14:10:02.173Z,32.60
2022-08-23T14:12:50.265Z,32.30
2022-08-23T14:21:48.953Z,33.10
2022-08-23T14:24:36.460Z,33.00
2022-08-23T14:27:22.608Z,33.30
2022-08-23T14:30:11.623Z,33.60
2022-08-23T14:32:58.616Z,33.70
2022-08-23T14:35:44.952Z,33.60
2022-08-23T14:38:30.851Z,33.20
2022-08-23T14:41:23.018Z,33.20
2022-08-23T14:44:08.698Z,33.10
2022-08-23T14:46:54.759Z,32.90
2022-08-23T14:49:40.853Z,32.80
2022-08-23T14:52:27.026Z,32.70
2022-08-23T14:55:14.524Z,32.70
2022-08-23T14:58:00.197Z,32.70
2022-08-23T15:00:46.605Z,32.60
2022-08-23T15:03:32.190Z,32.00
2022-08-23T15:06:21.853Z,32.30
2022-08-23T15:09:07.462Z,32.40
2022-08-23T15:15:00.927Z,32.60
2022-08-23T15:17:56.336Z,32.30
2022-08-23T15:20:42.683Z,32.40
2022-08-23T15:23:28.671Z,32.10
2022-08-23T15:26:20.108Z,32.10
2022-08-23T15:29:06.461Z,32.10
2022-08-23T15:31:53.314Z,31.90
2022-08-23T15:34:40.138Z,31.60
2022-08-23T15:37:31.993Z,31.30
2022-08-23T15:40:17.861Z,31.00
2022-08-23T15:43:04.220Z,30.90
2022-08-23T15:45:50.319Z,30.80
2022-08-23T15:49:10.975Z,31.00
2022-08-23T15:51:56.643Z,31.10
2022-08-23T15:54:42.706Z,31.10
2022-08-23T15:57:28.952Z,31.10
2022-08-23T16:00:18.306Z,31.00
2022-08-23T16:03:18.997Z,31.10
2022-08-23T16:06:06.845Z,31.10
2022-08-23T16:08:52.878Z,31.10
2022-08-23T16:11:38.474Z,30.80
2022-08-23T16:14:24.097Z,30.80
2022-08-23T16:17:10.165Z,30.90
2022-08-23T16:19:56.000Z,30.90
2022-08-23T16:22:41.994Z,30.80
2022-08-23T16:25:27.754Z,30.80
2022-08-23T16:28:13.611Z,30.70
2022-08-23T16:30:59.403Z,30.60
2022-08-23T16:33:47.787Z,30.60
2022-08-23T16:36:33.661Z,30.50
2022-08-23T16:39:20.388Z,30.50
2022-08-23T16:42:06.837Z,30.50
2022-08-23T16:44:52.476Z,30.50
2022-08-23T16:47:41.117Z,30.40
2022-08-23T16:50:27.606Z,30.30
2022-08-23T16:53:13.501Z,30.20
2022-08-23T16:55:59.329Z,30.10
2022-08-23T16:58:45.150Z,30.00
2022-08-23T17:01:42.550Z,29.90
2022-08-23T17:04:30.222Z,29.80
2022-08-23T17:07:16.462Z,29.70
2022-08-23T17:10:02.141Z,29.60
2022-08-23T17:12:51.284Z,29.60
2022-08-23T17:15:37.525Z,29.50
2022-08-23T17:18:23.852Z,29.40
2022-08-23T17:21:09.796Z,29.30
2022-08-23T17:23:55.759Z,29.20
2022-08-23T17:26:41.809Z,29.00
2022-08-23T17:29:27.705Z,29.00
2022-08-23T17:32:16.624Z,28.90
2022-08-23T17:35:02.703Z,28.80
2022-08-23T17:37:48.471Z,28.70
2022-08-23T17:40:39.590Z,28.70
2022-08-23T17:43:25.226Z,28.60
2022-08-23T17:46:10.811Z,28.50
2022-08-23T17:48:57.815Z,28.40
2022-08-23T17:51:44.258Z,28.30
2022-08-23T17:54:30.148Z,28.20
2022-08-23T17:57:16.129Z,28.10
2022-08-23T18:00:02.109Z,28.00
2022-08-23T18:02:50.068Z,27.90
2022-08-23T18:05:40.001Z,27.80
2022-08-23T18:08:26.375Z,27.70
2022-08-23T18:11:13.331Z,27.60
2022-08-23T18:13:59.208Z,27.50
2022-08-23T18:16:45.496Z,27.30
2022-08-23T18:19:31.621Z,27.10
2022-08-23T18:22:17.207Z,26.90
2022-08-23T18:25:07.132Z,26.80
2022-08-23T18:28:09.368Z,26.70
2022-08-23T18:30:55.721Z,26.40
2022-08-23T18:33:46.314Z,26.30
2022-08-23T18:36:33.797Z,26.10
2022-08-23T18:39:31.321Z,25.90
2022-08-23T18:42:18.403Z,25.80
2022-08-23T18:45:05.537Z,25.70
2022-08-23T18:47:51.313Z,25.70
2022-08-23T18:50:37.034Z,25.60
2022-08-23T18:53:23.085Z,25.60
2022-08-23T18:56:08.576Z,25.60
2022-08-23T18:58:54.491Z,25.60
2022-08-23T19:01:42.385Z,25.60
2022-08-23T19:04:29.738Z,25.60
2022-08-23T19:07:15.666Z,25.60
2022-08-23T19:10:01.462Z,25.50
2022-08-23T19:12:51.890Z,25.40
2022-08-23T19:15:41.772Z,25.20
2022-08-23T19:18:27.838Z,25.10
2022-08-23T19:21:20.741Z,25.10
2022-08-23T19:24:06.714Z,25.00
2022-08-23T19:26:53.259Z,24.90
2022-08-23T19:29:39.106Z,24.80
2022-08-23T19:32:24.950Z,24.70
2022-08-23T19:35:12.795Z,24.70
2022-08-23T19:38:00.182Z,24.60
2022-08-23T19:40:46.090Z,24.60
2022-08-23T19:43:32.564Z,24.50
2022-08-23T19:46:18.736Z,24.40
2022-08-23T19:49:06.957Z,24.30
2022-08-23T19:51:53.093Z,24.20
2022-08-23T19:54:38.786Z,24.30
2022-08-23T19:57:24.476Z,24.30
2022-08-23T20:00:19.352Z,24.30
2022-08-23T20:03:05.717Z,24.20
2022-08-23T20:05:52.914Z,24.20
2022-08-23T20:08:38.502Z,24.30
2022-08-23T20:11:27.844Z,24.20
2022-08-23T20:14:14.658Z,24.20
2022-08-23T20:17:04.445Z,24.00
2022-08-23T20:19:50.545Z,23.90
2022-08-23T20:22:55.358Z,23.80
2022-08-23T20:25:41.532Z,23.70
2022-08-23T20:28:27.380Z,23.60
2022-08-23T20:31:24.569Z,23.50
2022-08-23T20:34:10.292Z,23.50
2022-08-23T20:36:58.319Z,23.40
2022-08-23T20:39:44.260Z,23.30
2022-08-23T20:42:30.488Z,23.30
2022-08-23T20:45:16.174Z,23.20
2022-08-23T20:48:01.954Z,23.20
2022-08-23T20:50:47.892Z,23.20
2022-08-23T20:53:35.175Z,23.20
2022-08-23T20:56:21.160Z,23.00
2022-08-23T20:59:08.087Z,23.00
2022-08-23T21:01:56.637Z,22.90
2022-08-23T21:04:42.526Z,22.80
2022-08-23T21:07:28.174Z,22.70
2022-08-23T21:10:14.096Z,22.70
2022-08-23T21:13:00.508Z,22.70
2022-08-23T21:15:51.207Z,22.70
2022-08-23T21:18:36.778Z,22.60
2022-08-23T21:21:26.525Z,22.50
2022-08-23T21:24:13.038Z,22.50
2022-08-23T21:26:59.138Z,22.50
2022-08-23T21:29:45.277Z,22.40
2022-08-23T21:32:30.956Z,22.40
2022-08-23T21:35:16.910Z,22.30
2022-08-23T21:38:03.164Z,22.30
2022-08-23T21:40:58.144Z,22.30
2022-08-23T21:43:43.993Z,22.30
2022-08-23T21:46:29.933Z,22.30
2022-08-23T21:49:16.654Z,22.30
2022-08-23T21:52:02.758Z,22.30
2022-08-23T21:54:48.830Z,22.30
2022-08-23T21:57:35.129Z,22.30
2022-08-23T22:00:23.271Z,22.20
2022-08-23T22:03:09.895Z,22.20
2022-08-23T22:05:55.733Z,22.20
2022-08-23T22:08:42.445Z,22.20
2022-08-23T22:11:28.416Z,22.20
2022-08-23T22:14:21.580Z,22.30
2022-08-23T22:17:07.604Z,22.30
2022-08-23T22:19:53.770Z,22.30
2022-08-23T22:22:39.574Z,22.30
2022-08-23T22:25:25.545Z,22.20
2022-08-23T22:28:11.380Z,22.20
2022-08-23T22:31:01.407Z,22.20
2022-08-23T22:33:47.694Z,22.20
2022-08-23T22:36:34.131Z,22.30
2022-08-23T22:39:21.275Z,22.20
2022-08-23T22:42:07.209Z,22.20
2022-08-23T22:44:56.275Z,22.20
2022-08-23T22:47:42.134Z,22.10
2022-08-23T22:50:27.913Z,22.10
2022-08-23T22:53:16.428Z,22.10
2022-08-23T22:56:02.560Z,22.10
2022-08-23T22:58:49.767Z,22.00
2022-08-23T23:01:44.393Z,21.90
2022-08-23T23:04:32.406Z,21.90
2022-08-23T23:07:40.782Z,21.70
2022-08-23T23:10:26.586Z,21.70
2022-08-23T23:13:12.120Z,21.70
2022-08-23T23:15:59.641Z,21.70
2022-08-23T23:19:05.598Z,21.60
2022-08-23T23:21:53.616Z,21.50
2022-08-23T23:24:40.754Z,21.40
2022-08-23T23:27:26.680Z,21.30
2022-08-23T23:30:13.010Z,21.30
2022-08-23T23:32:58.787Z,21.20
2022-08-23T23:35:44.974Z,21.10
2022-08-23T23:38:30.620Z,21.00
2022-08-23T23:41:16.349Z,20.90
2022-08-23T23:44:02.524Z,20.90
2022-08-23T23:46:48.321Z,20.60
2022-08-23T23:49:35.483Z,20.80
2022-08-23T23:52:21.284Z,20.90
2022-08-23T23:55:10.113Z,20.90
2022-08-23T23:57:56.602Z,20.90
